sensor_id;sensor_type;location;lat;lon;timestamp;temperature;humidity
52016;DHT22;38032;53.326;6.472;2022-10-16T00:01:14;13.40;99.90
52016;DHT22;38032;53.326;6.472;2022-10-16T00:03:42;13.30;99.90
52016;DHT22;38032;53.326;6.472;2022-10-16T00:06:09;13.30;99.90
52016;DHT22;38032;53.326;6.472;2022-10-16T00:08:35;13.50;99.90
52016;DHT22;38032;53.326;6.472;2022-10-16T00:11:06;13.40;99.90
52016;DHT22;38032;53.326;6.472;2022-10-16T00:13:33;13.40;99.90
52016;DHT22;38032;53.326;6.472;2022-10-16T00:16:00;13.30;99.90
52016;DHT22;38032;53.326;6.472;2022-10-16T00:18:27;13.40;99.90
52016;DHT22;38032;53.326;6.472;2022-10-16T00:20:54;13.40;99.90
52016;DHT22;38032;53.326;6.472;2022-10-16T00:23:20;13.30;99.90
52016;DHT22;38032;53.326;6.472;2022-10-16T00:25:55;13.30;99.90
52016;DHT22;38032;53.326;6.472;2022-10-16T00:28:21;13.30;99.90
52016;DHT22;38032;53.326;6.472;2022-10-16T00:30:47;13.30;99.90
52016;DHT22;38032;53.326;6.472;2022-10-16T00:33:13;13.10;99.90
52016;DHT22;38032;53.326;6.472;2022-10-16T00:35:38;13.20;99.90
52016;DHT22;38032;53.326;6.472;2022-10-16T00:38:04;13.40;99.90
52016;DHT22;38032;53.326;6.472;2022-10-16T00:40:30;13.20;99.90
52016;DHT22;38032;53.326;6.472;2022-10-16T00:42:57;13.20;99.90
52016;DHT22;38032;53.326;6.472;2022-10-16T00:45:23;13.20;99.90
52016;DHT22;38032;53.326;6.472;2022-10-16T00:47:50;13.10;99.90
52016;DHT22;38032;53.326;6.472;2022-10-16T00:50:30;13.10;99.90
52016;DHT22;38032;53.326;6.472;2022-10-16T00:52:58;13.10;99.90
52016;DHT22;38032;53.326;6.472;2022-10-16T00:55:25;13.10;99.90
52016;DHT22;38032;53.326;6.472;2022-10-16T00:57:52;13.20;99.90
52016;DHT22;38032;53.326;6.472;2022-10-16T01:00:21;13.10;99.90
52016;DHT22;38032;53.326;6.472;2022-10-16T01:02:57;13.20;99.90
52016;DHT22;38032;53.326;6.472;2022-10-16T01:05:25;13.00;99.90
52016;DHT22;38032;53.326;6.472;2022-10-16T01:08:01;13.00;99.90
52016;DHT22;38032;53.326;6.472;2022-10-16T01:10:39;13.10;99.90
52016;DHT22;38032;53.326;6.472;2022-10-16T01:13:09;13.10;99.90
52016;DHT22;38032;53.326;6.472;2022-10-16T01:15:44;13.20;99.90
52016;DHT22;38032;53.326;6.472;2022-10-16T01:20:49;13.20;99.90
52016;DHT22;38032;53.326;6.472;2022-10-16T01:28:28;13.10;99.90
52016;DHT22;38032;53.326;6.472;2022-10-16T01:30:59;13.20;99.90
52016;DHT22;38032;53.326;6.472;2022-10-16T01:33:34;13.10;99.90
52016;DHT22;38032;53.326;6.472;2022-10-16T01:36:11;13.30;99.90
52016;DHT22;38032;53.326;6.472;2022-10-16T01:38:40;13.10;99.90
52016;DHT22;38032;53.326;6.472;2022-10-16T01:41:15;13.20;99.90
52016;DHT22;38032;53.326;6.472;2022-10-16T01:43:48;13.00;99.90
52016;DHT22;38032;53.326;6.472;2022-10-16T01:46:17;13.20;99.90
52016;DHT22;38032;53.326;6.472;2022-10-16T01:48:44;13.10;99.90
52016;DHT22;38032;53.326;6.472;2022-10-16T01:51:12;13.20;99.90
52016;DHT22;38032;53.326;6.472;2022-10-16T01:53:40;13.30;99.90
52016;DHT22;38032;53.326;6.472;2022-10-16T01:56:09;13.30;99.90
52016;DHT22;38032;53.326;6.472;2022-10-16T01:58:40;13.40;99.90
52016;DHT22;38032;53.326;6.472;2022-10-16T02:01:10;13.30;99.90
52016;DHT22;38032;53.326;6.472;2022-10-16T02:03:39;13.30;99.90
52016;DHT22;38032;53.326;6.472;2022-10-16T02:06:07;13.30;99.90
52016;DHT22;38032;53.326;6.472;2022-10-16T02:08:33;13.40;99.90
52016;DHT22;38032;53.326;6.472;2022-10-16T02:11:00;13.50;99.90
52016;DHT22;38032;53.326;6.472;2022-10-16T02:15:57;13.40;99.90
52016;DHT22;38032;53.326;6.472;2022-10-16T02:18:23;13.40;99.90
52016;DHT22;38032;53.326;6.472;2022-10-16T02:20:57;13.50;99.90
52016;DHT22;38032;53.326;6.472;2022-10-16T02:23:29;13.50;99.90
52016;DHT22;38032;53.326;6.472;2022-10-16T02:26:03;13.50;99.90
52016;DHT22;38032;53.326;6.472;2022-10-16T02:28:45;13.60;99.90
52016;DHT22;38032;53.326;6.472;2022-10-16T02:31:18;13.60;99.90
52016;DHT22;38032;53.326;6.472;2022-10-16T02:33:46;13.60;99.90
52016;DHT22;38032;53.326;6.472;2022-10-16T02:36:11;13.60;99.90
52016;DHT22;38032;53.326;6.472;2022-10-16T02:38:39;13.70;99.90
52016;DHT22;38032;53.326;6.472;2022-10-16T02:41:05;13.80;99.90
52016;DHT22;38032;53.326;6.472;2022-10-16T02:43:31;13.70;99.90
52016;DHT22;38032;53.326;6.472;2022-10-16T02:45:59;13.50;99.90
52016;DHT22;38032;53.326;6.472;2022-10-16T02:48:25;13.80;99.90
52016;DHT22;38032;53.326;6.472;2022-10-16T02:50:51;13.90;99.90
52016;DHT22;38032;53.326;6.472;2022-10-16T02:53:17;13.80;99.90
52016;DHT22;38032;53.326;6.472;2022-10-16T02:55:42;13.70;99.90
52016;DHT22;38032;53.326;6.472;2022-10-16T02:58:08;13.80;99.90
52016;DHT22;38032;53.326;6.472;2022-10-16T03:00:34;13.70;99.90
52016;DHT22;38032;53.326;6.472;2022-10-16T03:03:00;13.60;99.90
52016;DHT22;38032;53.326;6.472;2022-10-16T03:05:26;13.60;99.90
52016;DHT22;38032;53.326;6.472;2022-10-16T03:07:51;13.60;99.90
52016;DHT22;38032;53.326;6.472;2022-10-16T03:10:18;13.70;99.90
52016;DHT22;38032;53.326;6.472;2022-10-16T03:12:44;13.70;99.90
52016;DHT22;38032;53.326;6.472;2022-10-16T03:15:09;13.50;99.90
52016;DHT22;38032;53.326;6.472;2022-10-16T03:17:35;13.60;99.90
52016;DHT22;38032;53.326;6.472;2022-10-16T03:20:02;13.50;99.90
52016;DHT22;38032;53.326;6.472;2022-10-16T03:22:27;13.40;99.90
52016;DHT22;38032;53.326;6.472;2022-10-16T03:24:53;13.50;99.90
52016;DHT22;38032;53.326;6.472;2022-10-16T03:27:19;13.50;99.90
52016;DHT22;38032;53.326;6.472;2022-10-16T03:29:45;13.50;99.90
52016;DHT22;38032;53.326;6.472;2022-10-16T03:32:10;13.50;99.90
52016;DHT22;38032;53.326;6.472;2022-10-16T03:34:36;13.40;99.90
52016;DHT22;38032;53.326;6.472;2022-10-16T03:37:02;13.40;99.90
52016;DHT22;38032;53.326;6.472;2022-10-16T03:39:28;13.40;99.90
52016;DHT22;38032;53.326;6.472;2022-10-16T03:41:54;13.40;99.90
52016;DHT22;38032;53.326;6.472;2022-10-16T03:44:20;13.40;99.90
52016;DHT22;38032;53.326;6.472;2022-10-16T03:46:46;13.20;99.90
52016;DHT22;38032;53.326;6.472;2022-10-16T03:49:12;13.30;99.90
52016;DHT22;38032;53.326;6.472;2022-10-16T03:51:37;13.40;99.90
52016;DHT22;38032;53.326;6.472;2022-10-16T03:54:03;13.20;99.90
52016;DHT22;38032;53.326;6.472;2022-10-16T03:56:29;13.10;99.90
52016;DHT22;38032;53.326;6.472;2022-10-16T03:58:55;13.20;99.90
52016;DHT22;38032;53.326;6.472;2022-10-16T04:01:20;13.20;99.90
52016;DHT22;38032;53.326;6.472;2022-10-16T04:03:46;13.10;99.90
52016;DHT22;38032;53.326;6.472;2022-10-16T04:06:12;13.10;99.90
52016;DHT22;38032;53.326;6.472;2022-10-16T04:08:38;13.20;99.90
52016;DHT22;38032;53.326;6.472;2022-10-16T04:11:04;13.20;99.90
52016;DHT22;38032;53.326;6.472;2022-10-16T04:13:31;13.20;99.90
52016;DHT22;38032;53.326;6.472;2022-10-16T04:15:56;13.10;99.90
52016;DHT22;38032;53.326;6.472;2022-10-16T04:18:22;13.20;99.90
52016;DHT22;38032;53.326;6.472;2022-10-16T04:20:49;13.30;99.90
52016;DHT22;38032;53.326;6.472;2022-10-16T04:23:14;13.20;99.90
52016;DHT22;38032;53.326;6.472;2022-10-16T04:25:40;13.00;99.90
52016;DHT22;38032;53.326;6.472;2022-10-16T04:28:06;13.00;99.90
52016;DHT22;38032;53.326;6.472;2022-10-16T04:30:32;13.20;99.90
52016;DHT22;38032;53.326;6.472;2022-10-16T04:32:59;13.20;99.90
52016;DHT22;38032;53.326;6.472;2022-10-16T04:35:25;13.10;99.90
52016;DHT22;38032;53.326;6.472;2022-10-16T04:37:51;13.20;99.90
52016;DHT22;38032;53.326;6.472;2022-10-16T04:40:16;13.20;99.90
52016;DHT22;38032;53.326;6.472;2022-10-16T04:42:43;13.20;99.90
52016;DHT22;38032;53.326;6.472;2022-10-16T04:45:08;13.30;99.90
52016;DHT22;38032;53.326;6.472;2022-10-16T04:47:34;13.20;99.90
52016;DHT22;38032;53.326;6.472;2022-10-16T04:50:00;13.30;99.90
52016;DHT22;38032;53.326;6.472;2022-10-16T04:52:28;13.20;99.90
52016;DHT22;38032;53.326;6.472;2022-10-16T04:54:54;13.30;99.90
52016;DHT22;38032;53.326;6.472;2022-10-16T04:57:21;13.30;99.90
52016;DHT22;38032;53.326;6.472;2022-10-16T04:59:46;13.20;99.90
52016;DHT22;38032;53.326;6.472;2022-10-16T05:02:12;13.40;99.90
52016;DHT22;38032;53.326;6.472;2022-10-16T05:04:38;13.30;99.90
52016;DHT22;38032;53.326;6.472;2022-10-16T05:07:04;13.40;99.90
52016;DHT22;38032;53.326;6.472;2022-10-16T05:09:29;13.40;99.90
52016;DHT22;38032;53.326;6.472;2022-10-16T05:11:55;13.40;99.90
52016;DHT22;38032;53.326;6.472;2022-10-16T05:14:21;13.40;99.90
52016;DHT22;38032;53.326;6.472;2022-10-16T05:16:47;13.40;99.90
52016;DHT22;38032;53.326;6.472;2022-10-16T05:19:13;13.60;99.90
52016;DHT22;38032;53.326;6.472;2022-10-16T05:21:39;13.60;99.90
52016;DHT22;38032;53.326;6.472;2022-10-16T05:24:05;13.40;99.90
52016;DHT22;38032;53.326;6.472;2022-10-16T05:26:31;13.60;99.90
52016;DHT22;38032;53.326;6.472;2022-10-16T05:28:57;13.50;99.90
52016;DHT22;38032;53.326;6.472;2022-10-16T05:31:22;13.20;99.90
52016;DHT22;38032;53.326;6.472;2022-10-16T05:33:48;13.30;99.90
52016;DHT22;38032;53.326;6.472;2022-10-16T05:36:14;13.30;99.90
52016;DHT22;38032;53.326;6.472;2022-10-16T05:38:40;13.40;99.90
52016;DHT22;38032;53.326;6.472;2022-10-16T05:41:06;13.50;99.90
52016;DHT22;38032;53.326;6.472;2022-10-16T05:43:32;13.50;99.90
52016;DHT22;38032;53.326;6.472;2022-10-16T05:45:59;13.50;99.90
52016;DHT22;38032;53.326;6.472;2022-10-16T05:48:26;13.50;99.90
52016;DHT22;38032;53.326;6.472;2022-10-16T05:50:57;13.50;99.90
52016;DHT22;38032;53.326;6.472;2022-10-16T05:53:23;13.30;99.90
52016;DHT22;38032;53.326;6.472;2022-10-16T05:55:53;13.40;99.90
52016;DHT22;38032;53.326;6.472;2022-10-16T05:58:19;13.40;99.90
52016;DHT22;38032;53.326;6.472;2022-10-16T06:00:49;13.30;99.90
52016;DHT22;38032;53.326;6.472;2022-10-16T06:03:17;13.40;99.90
52016;DHT22;38032;53.326;6.472;2022-10-16T06:05:43;13.60;99.90
52016;DHT22;38032;53.326;6.472;2022-10-16T06:08:09;13.30;99.90
52016;DHT22;38032;53.326;6.472;2022-10-16T06:10:35;13.30;99.90
52016;DHT22;38032;53.326;6.472;2022-10-16T06:13:00;13.30;99.90
52016;DHT22;38032;53.326;6.472;2022-10-16T06:15:26;13.30;99.90
52016;DHT22;38032;53.326;6.472;2022-10-16T06:17:52;13.30;99.90
52016;DHT22;38032;53.326;6.472;2022-10-16T06:20:18;13.20;99.90
52016;DHT22;38032;53.326;6.472;2022-10-16T06:22:43;13.20;99.90
52016;DHT22;38032;53.326;6.472;2022-10-16T06:25:09;13.20;99.90
52016;DHT22;38032;53.326;6.472;2022-10-16T06:27:35;13.20;99.90
52016;DHT22;38032;53.326;6.472;2022-10-16T06:30:01;13.40;99.90
52016;DHT22;38032;53.326;6.472;2022-10-16T06:32:29;13.40;99.90
52016;DHT22;38032;53.326;6.472;2022-10-16T06:34:55;13.30;99.90
52016;DHT22;38032;53.326;6.472;2022-10-16T06:37:20;13.50;99.90
52016;DHT22;38032;53.326;6.472;2022-10-16T06:39:47;13.30;99.90
52016;DHT22;38032;53.326;6.472;2022-10-16T06:42:13;13.30;99.90
52016;DHT22;38032;53.326;6.472;2022-10-16T06:44:39;13.30;99.90
52016;DHT22;38032;53.326;6.472;2022-10-16T06:47:04;13.40;99.90
52016;DHT22;38032;53.326;6.472;2022-10-16T06:49:30;13.30;99.90
52016;DHT22;38032;53.326;6.472;2022-10-16T06:51:56;13.50;99.90
52016;DHT22;38032;53.326;6.472;2022-10-16T06:54:22;13.50;99.90
52016;DHT22;38032;53.326;6.472;2022-10-16T06:56:48;13.50;99.90
52016;DHT22;38032;53.326;6.472;2022-10-16T06:59:13;13.30;99.90
52016;DHT22;38032;53.326;6.472;2022-10-16T07:01:39;13.40;99.90
52016;DHT22;38032;53.326;6.472;2022-10-16T07:04:05;13.50;99.90
52016;DHT22;38032;53.326;6.472;2022-10-16T07:06:32;13.40;99.90
52016;DHT22;38032;53.326;6.472;2022-10-16T07:09:02;13.50;99.90
52016;DHT22;38032;53.326;6.472;2022-10-16T07:11:28;13.60;99.90
52016;DHT22;38032;53.326;6.472;2022-10-16T07:13:53;13.50;99.90
52016;DHT22;38032;53.326;6.472;2022-10-16T07:16:22;13.40;99.90
52016;DHT22;38032;53.326;6.472;2022-10-16T07:18:48;13.50;99.90
52016;DHT22;38032;53.326;6.472;2022-10-16T07:21:16;13.70;99.90
52016;DHT22;38032;53.326;6.472;2022-10-16T07:23:43;13.60;99.90
52016;DHT22;38032;53.326;6.472;2022-10-16T07:26:09;13.70;99.90
52016;DHT22;38032;53.326;6.472;2022-10-16T07:28:36;13.60;99.90
52016;DHT22;38032;53.326;6.472;2022-10-16T07:31:04;13.70;99.90
52016;DHT22;38032;53.326;6.472;2022-10-16T07:33:31;13.60;99.90
52016;DHT22;38032;53.326;6.472;2022-10-16T07:35:57;13.70;99.90
52016;DHT22;38032;53.326;6.472;2022-10-16T07:38:23;13.80;99.90
52016;DHT22;38032;53.326;6.472;2022-10-16T07:40:56;13.90;99.90
52016;DHT22;38032;53.326;6.472;2022-10-16T07:43:23;13.80;99.90
52016;DHT22;38032;53.326;6.472;2022-10-16T07:45:49;13.70;99.90
52016;DHT22;38032;53.326;6.472;2022-10-16T07:48:16;13.90;99.90
52016;DHT22;38032;53.326;6.472;2022-10-16T07:50:43;13.90;99.90
52016;DHT22;38032;53.326;6.472;2022-10-16T07:53:09;13.80;99.90
52016;DHT22;38032;53.326;6.472;2022-10-16T07:55:35;14.00;99.90
52016;DHT22;38032;53.326;6.472;2022-10-16T07:58:01;14.00;99.90
52016;DHT22;38032;53.326;6.472;2022-10-16T08:00:27;14.00;99.90
52016;DHT22;38032;53.326;6.472;2022-10-16T08:02:53;14.00;99.90
52016;DHT22;38032;53.326;6.472;2022-10-16T08:05:19;14.10;99.90
52016;DHT22;38032;53.326;6.472;2022-10-16T08:07:49;14.50;99.90
52016;DHT22;38032;53.326;6.472;2022-10-16T08:10:19;14.60;99.90
52016;DHT22;38032;53.326;6.472;2022-10-16T08:12:46;14.70;99.90
52016;DHT22;38032;53.326;6.472;2022-10-16T08:15:12;14.70;99.90
52016;DHT22;38032;53.326;6.472;2022-10-16T08:17:37;14.90;99.90
52016;DHT22;38032;53.326;6.472;2022-10-16T08:20:04;15.00;99.90
52016;DHT22;38032;53.326;6.472;2022-10-16T08:22:30;15.10;99.90
52016;DHT22;38032;53.326;6.472;2022-10-16T08:24:56;15.40;99.90
52016;DHT22;38032;53.326;6.472;2022-10-16T08:27:22;15.50;99.90
52016;DHT22;38032;53.326;6.472;2022-10-16T08:29:49;15.50;99.90
52016;DHT22;38032;53.326;6.472;2022-10-16T08:32:15;15.70;99.90
52016;DHT22;38032;53.326;6.472;2022-10-16T08:34:41;15.90;99.90
52016;DHT22;38032;53.326;6.472;2022-10-16T08:39:36;16.10;99.90
52016;DHT22;38032;53.326;6.472;2022-10-16T08:47:26;17.50;99.90
52016;DHT22;38032;53.326;6.472;2022-10-16T08:50:00;17.50;99.90
52016;DHT22;38032;53.326;6.472;2022-10-16T08:52:30;17.50;99.90
52016;DHT22;38032;53.326;6.472;2022-10-16T08:54:58;17.60;99.90
52016;DHT22;38032;53.326;6.472;2022-10-16T08:57:25;17.70;99.90
52016;DHT22;38032;53.326;6.472;2022-10-16T08:59:53;17.60;99.90
52016;DHT22;38032;53.326;6.472;2022-10-16T09:02:23;17.50;99.90
52016;DHT22;38032;53.326;6.472;2022-10-16T09:05:01;17.30;99.90
52016;DHT22;38032;53.326;6.472;2022-10-16T09:07:38;17.00;99.90
52016;DHT22;38032;53.326;6.472;2022-10-16T09:10:26;16.90;99.90
52016;DHT22;38032;53.326;6.472;2022-10-16T09:13:07;17.60;99.90
52016;DHT22;38032;53.326;6.472;2022-10-16T09:15:41;19.50;99.90
52016;DHT22;38032;53.326;6.472;2022-10-16T09:21:13;22.00;99.90
52016;DHT22;38032;53.326;6.472;2022-10-16T09:23:39;21.90;99.90
52016;DHT22;38032;53.326;6.472;2022-10-16T09:26:09;22.80;99.90
52016;DHT22;38032;53.326;6.472;2022-10-16T09:28:36;23.70;99.90
52016;DHT22;38032;53.326;6.472;2022-10-16T09:31:02;24.40;99.90
52016;DHT22;38032;53.326;6.472;2022-10-16T09:33:34;25.00;99.90
52016;DHT22;38032;53.326;6.472;2022-10-16T09:36:03;25.30;98.70
52016;DHT22;38032;53.326;6.472;2022-10-16T09:38:31;25.60;97.30
52016;DHT22;38032;53.326;6.472;2022-10-16T09:40:59;26.00;95.20
52016;DHT22;38032;53.326;6.472;2022-10-16T09:43:31;26.40;99.90
52016;DHT22;38032;53.326;6.472;2022-10-16T09:46:00;26.70;92.30
52016;DHT22;38032;53.326;6.472;2022-10-16T09:48:34;26.90;89.90
52016;DHT22;38032;53.326;6.472;2022-10-16T09:51:04;27.10;88.20
52016;DHT22;38032;53.326;6.472;2022-10-16T09:53:42;27.30;90.10
52016;DHT22;38032;53.326;6.472;2022-10-16T09:56:11;27.40;84.40
52016;DHT22;38032;53.326;6.472;2022-10-16T09:58:42;27.60;81.80
52016;DHT22;38032;53.326;6.472;2022-10-16T10:01:13;27.30;79.90
52016;DHT22;38032;53.326;6.472;2022-10-16T10:03:42;27.10;79.20
52016;DHT22;38032;53.326;6.472;2022-10-16T10:06:22;26.90;78.40
52016;DHT22;38032;53.326;6.472;2022-10-16T10:08:54;26.90;78.40
52016;DHT22;38032;53.326;6.472;2022-10-16T10:11:37;26.90;77.90
52016;DHT22;38032;53.326;6.472;2022-10-16T10:14:05;27.00;78.70
52016;DHT22;38032;53.326;6.472;2022-10-16T10:16:31;27.10;76.80
52016;DHT22;38032;53.326;6.472;2022-10-16T10:18:59;27.20;76.00
52016;DHT22;38032;53.326;6.472;2022-10-16T10:21:26;27.20;74.90
52016;DHT22;38032;53.326;6.472;2022-10-16T10:23:55;27.30;73.80
52016;DHT22;38032;53.326;6.472;2022-10-16T10:26:25;27.50;73.50
52016;DHT22;38032;53.326;6.472;2022-10-16T10:31:27;27.60;73.00
52016;DHT22;38032;53.326;6.472;2022-10-16T10:34:04;27.60;71.60
52016;DHT22;38032;53.326;6.472;2022-10-16T10:36:39;27.30;70.60
52016;DHT22;38032;53.326;6.472;2022-10-16T10:39:22;26.40;71.30
52016;DHT22;38032;53.326;6.472;2022-10-16T10:44:50;25.10;71.20
52016;DHT22;38032;53.326;6.472;2022-10-16T10:52:38;23.60;74.90
52016;DHT22;38032;53.326;6.472;2022-10-16T10:55:10;22.90;78.30
52016;DHT22;38032;53.326;6.472;2022-10-16T10:58:08;22.80;76.70
52016;DHT22;38032;53.326;6.472;2022-10-16T11:03:30;22.60;85.10
52016;DHT22;38032;53.326;6.472;2022-10-16T11:06:06;22.70;84.60
52016;DHT22;38032;53.326;6.472;2022-10-16T11:08:44;22.60;83.80
52016;DHT22;38032;53.326;6.472;2022-10-16T11:11:19;22.50;83.10
52016;DHT22;38032;53.326;6.472;2022-10-16T11:13:55;22.30;85.10
52016;DHT22;38032;53.326;6.472;2022-10-16T11:16:28;22.30;86.80
52016;DHT22;38032;53.326;6.472;2022-10-16T11:19:33;22.30;88.50
52016;DHT22;38032;53.326;6.472;2022-10-16T11:22:16;22.10;89.90
52016;DHT22;38032;53.326;6.472;2022-10-16T11:27:25;21.80;90.70
52016;DHT22;38032;53.326;6.472;2022-10-16T11:29:58;21.80;90.10
52016;DHT22;38032;53.326;6.472;2022-10-16T11:32:31;21.80;90.30
52016;DHT22;38032;53.326;6.472;2022-10-16T11:35:06;21.70;91.40
52016;DHT22;38032;53.326;6.472;2022-10-16T11:37:38;21.60;91.60
52016;DHT22;38032;53.326;6.472;2022-10-16T11:40:32;21.60;90.60
52016;DHT22;38032;53.326;6.472;2022-10-16T11:43:11;21.60;91.20
52016;DHT22;38032;53.326;6.472;2022-10-16T11:45:45;21.50;90.10
52016;DHT22;38032;53.326;6.472;2022-10-16T11:48:32;21.60;90.20
52016;DHT22;38032;53.326;6.472;2022-10-16T11:51:14;21.20;89.10
52016;DHT22;38032;53.326;6.472;2022-10-16T11:54:03;21.00;89.00
52016;DHT22;38032;53.326;6.472;2022-10-16T11:56:32;20.80;87.10
52016;DHT22;38032;53.326;6.472;2022-10-16T11:59:10;20.60;89.60
52016;DHT22;38032;53.326;6.472;2022-10-16T12:01:48;20.80;89.40
52016;DHT22;38032;53.326;6.472;2022-10-16T12:04:33;20.30;90.60
52016;DHT22;38032;53.326;6.472;2022-10-16T12:07:07;20.20;92.00
52016;DHT22;38032;53.326;6.472;2022-10-16T12:09:38;20.20;91.60
52016;DHT22;38032;53.326;6.472;2022-10-16T12:12:05;20.40;90.50
52016;DHT22;38032;53.326;6.472;2022-10-16T12:14:58;20.20;90.10
52016;DHT22;38032;53.326;6.472;2022-10-16T12:17:33;20.20;89.60
52016;DHT22;38032;53.326;6.472;2022-10-16T12:22:50;20.10;91.10
52016;DHT22;38032;53.326;6.472;2022-10-16T12:25:21;20.00;90.80
52016;DHT22;38032;53.326;6.472;2022-10-16T12:27:55;20.10;91.70
52016;DHT22;38032;53.326;6.472;2022-10-16T12:30:24;20.10;92.10
52016;DHT22;38032;53.326;6.472;2022-10-16T12:32:56;20.00;92.00
52016;DHT22;38032;53.326;6.472;2022-10-16T12:35:30;20.10;92.00
52016;DHT22;38032;53.326;6.472;2022-10-16T12:38:07;20.00;91.50
52016;DHT22;38032;53.326;6.472;2022-10-16T12:40:35;20.00;92.90
52016;DHT22;38032;53.326;6.472;2022-10-16T12:43:13;20.10;92.50
52016;DHT22;38032;53.326;6.472;2022-10-16T12:46:00;20.00;93.70
52016;DHT22;38032;53.326;6.472;2022-10-16T12:48:27;19.90;94.80
52016;DHT22;38032;53.326;6.472;2022-10-16T12:50:53;19.80;94.70
52016;DHT22;38032;53.326;6.472;2022-10-16T12:53:23;19.80;94.40
52016;DHT22;38032;53.326;6.472;2022-10-16T12:55:57;20.00;92.80
52016;DHT22;38032;53.326;6.472;2022-10-16T12:58:32;19.80;93.30
52016;DHT22;38032;53.326;6.472;2022-10-16T13:01:18;19.70;92.80
52016;DHT22;38032;53.326;6.472;2022-10-16T13:03:50;19.90;93.80
52016;DHT22;38032;53.326;6.472;2022-10-16T13:06:24;19.60;93.30
52016;DHT22;38032;53.326;6.472;2022-10-16T13:09:09;19.60;94.60
52016;DHT22;38032;53.326;6.472;2022-10-16T13:12:00;19.70;93.60
52016;DHT22;38032;53.326;6.472;2022-10-16T13:17:51;19.40;96.00
52016;DHT22;38032;53.326;6.472;2022-10-16T13:20:25;19.40;94.80
52016;DHT22;38032;53.326;6.472;2022-10-16T13:25:45;19.40;95.80
52016;DHT22;38032;53.326;6.472;2022-10-16T13:28:13;19.20;96.00
52016;DHT22;38032;53.326;6.472;2022-10-16T13:30:42;19.30;95.10
52016;DHT22;38032;53.326;6.472;2022-10-16T13:33:20;19.30;95.60
52016;DHT22;38032;53.326;6.472;2022-10-16T13:35:51;18.90;96.80
52016;DHT22;38032;53.326;6.472;2022-10-16T13:38:20;19.00;96.50
52016;DHT22;38032;53.326;6.472;2022-10-16T13:40:55;19.00;96.60
52016;DHT22;38032;53.326;6.472;2022-10-16T13:43:29;18.80;97.30
52016;DHT22;38032;53.326;6.472;2022-10-16T13:46:00;18.70;98.20
52016;DHT22;38032;53.326;6.472;2022-10-16T13:48:28;18.80;97.60
52016;DHT22;38032;53.326;6.472;2022-10-16T13:50:59;18.60;97.80
52016;DHT22;38032;53.326;6.472;2022-10-16T13:55:51;18.60;97.00
52016;DHT22;38032;53.326;6.472;2022-10-16T13:58:17;18.70;98.60
52016;DHT22;38032;53.326;6.472;2022-10-16T14:01:01;18.70;98.60
52016;DHT22;38032;53.326;6.472;2022-10-16T14:03:28;18.70;99.80
52016;DHT22;38032;53.326;6.472;2022-10-16T14:05:59;18.60;98.60
52016;DHT22;38032;53.326;6.472;2022-10-16T14:08:27;18.70;99.10
52016;DHT22;38032;53.326;6.472;2022-10-16T14:10:57;18.30;99.00
52016;DHT22;38032;53.326;6.472;2022-10-16T14:13:29;18.40;99.30
52016;DHT22;38032;53.326;6.472;2022-10-16T14:15:56;18.40;99.70
52016;DHT22;38032;53.326;6.472;2022-10-16T14:18:26;18.40;99.60
52016;DHT22;38032;53.326;6.472;2022-10-16T14:20:52;18.30;99.80
52016;DHT22;38032;53.326;6.472;2022-10-16T14:23:22;18.30;99.90
52016;DHT22;38032;53.326;6.472;2022-10-16T14:25:48;18.30;99.90
52016;DHT22;38032;53.326;6.472;2022-10-16T14:28:18;18.30;99.90
52016;DHT22;38032;53.326;6.472;2022-10-16T14:30:56;18.20;99.90
52016;DHT22;38032;53.326;6.472;2022-10-16T14:36:05;18.00;99.90
52016;DHT22;38032;53.326;6.472;2022-10-16T14:38:33;18.00;99.90
52016;DHT22;38032;53.326;6.472;2022-10-16T14:40:59;17.90;99.90
52016;DHT22;38032;53.326;6.472;2022-10-16T14:43:34;17.90;99.90
52016;DHT22;38032;53.326;6.472;2022-10-16T14:46:03;18.00;99.90
52016;DHT22;38032;53.326;6.472;2022-10-16T14:48:30;17.80;99.90
52016;DHT22;38032;53.326;6.472;2022-10-16T14:50:57;18.00;99.90
52016;DHT22;38032;53.326;6.472;2022-10-16T14:53:23;17.80;99.90
52016;DHT22;38032;53.326;6.472;2022-10-16T14:55:49;17.70;99.90
52016;DHT22;38032;53.326;6.472;2022-10-16T14:58:17;17.60;99.90
52016;DHT22;38032;53.326;6.472;2022-10-16T15:00:44;17.60;99.90
52016;DHT22;38032;53.326;6.472;2022-10-16T15:03:10;17.50;99.90
52016;DHT22;38032;53.326;6.472;2022-10-16T15:05:39;17.40;99.90
52016;DHT22;38032;53.326;6.472;2022-10-16T15:08:05;17.40;99.90
52016;DHT22;38032;53.326;6.472;2022-10-16T15:10:38;17.30;99.90
52016;DHT22;38032;53.326;6.472;2022-10-16T15:13:04;17.30;99.90
52016;DHT22;38032;53.326;6.472;2022-10-16T15:15:37;17.30;99.90
52016;DHT22;38032;53.326;6.472;2022-10-16T15:18:04;17.20;99.90
52016;DHT22;38032;53.326;6.472;2022-10-16T15:20:35;17.70;99.90
52016;DHT22;38032;53.326;6.472;2022-10-16T15:23:03;16.10;99.90
52016;DHT22;38032;53.326;6.472;2022-10-16T15:25:34;17.30;99.90
52016;DHT22;38032;53.326;6.472;2022-10-16T15:28:02;17.20;99.90
52016;DHT22;38032;53.326;6.472;2022-10-16T15:30:29;17.00;99.90
52016;DHT22;38032;53.326;6.472;2022-10-16T15:32:54;17.20;99.90
52016;DHT22;38032;53.326;6.472;2022-10-16T15:35:21;17.10;99.90
52016;DHT22;38032;53.326;6.472;2022-10-16T15:37:47;17.10;99.90
52016;DHT22;38032;53.326;6.472;2022-10-16T15:40:16;16.80;99.90
52016;DHT22;38032;53.326;6.472;2022-10-16T15:42:45;16.70;99.90
52016;DHT22;38032;53.326;6.472;2022-10-16T15:46:06;16.90;99.90
52016;DHT22;38032;53.326;6.472;2022-10-16T15:48:45;17.10;99.90
52016;DHT22;38032;53.326;6.472;2022-10-16T15:51:11;16.60;99.90
52016;DHT22;38032;53.326;6.472;2022-10-16T15:53:56;16.20;99.90
52016;DHT22;38032;53.326;6.472;2022-10-16T15:56:22;16.70;99.90
52016;DHT22;38032;53.326;6.472;2022-10-16T15:58:52;16.30;99.90
52016;DHT22;38032;53.326;6.472;2022-10-16T16:01:18;15.30;99.90
52016;DHT22;38032;53.326;6.472;2022-10-16T16:03:46;16.30;99.90
52016;DHT22;38032;53.326;6.472;2022-10-16T16:06:15;16.40;99.90
52016;DHT22;38032;53.326;6.472;2022-10-16T16:08:43;16.10;99.90
52016;DHT22;38032;53.326;6.472;2022-10-16T16:11:14;16.30;99.90
52016;DHT22;38032;53.326;6.472;2022-10-16T16:13:40;16.00;99.90
52016;DHT22;38032;53.326;6.472;2022-10-16T16:16:13;15.90;99.90
52016;DHT22;38032;53.326;6.472;2022-10-16T16:18:42;15.90;99.90
52016;DHT22;38032;53.326;6.472;2022-10-16T16:21:11;16.00;99.90
52016;DHT22;38032;53.326;6.472;2022-10-16T16:26:06;15.70;99.90
52016;DHT22;38032;53.326;6.472;2022-10-16T16:28:33;16.40;99.90
52016;DHT22;38032;53.326;6.472;2022-10-16T16:30:59;15.50;99.90
52016;DHT22;38032;53.326;6.472;2022-10-16T16:33:28;15.50;99.90
52016;DHT22;38032;53.326;6.472;2022-10-16T16:35:58;15.40;99.90
52016;DHT22;38032;53.326;6.472;2022-10-16T16:38:24;15.40;99.90